createdAt,value
2022-09-21T00:01:39.656Z,9.65
2022-09-21T00:04:08.135Z,9.65
2022-09-21T00:06:37.359Z,9.64
2022-09-21T00:09:08.170Z,9.65
2022-09-21T00:11:37.756Z,9.65
2022-09-21T00:14:10.671Z,9.64
2022-09-21T00:16:40.409Z,9.63
2022-09-21T00:19:09.394Z,9.62
2022-09-21T00:21:39.223Z,9.60
2022-09-21T00:24:08.675Z,9.55
2022-09-21T00:26:37.278Z,9.51
2022-09-21T00:29:07.335Z,9.47
2022-09-21T00:31:36.214Z,9.44
2022-09-21T00:34:07.694Z,9.39
2022-09-21T00:36:36.618Z,9.39
2022-09-21T00:39:05.690Z,9.40
2022-09-21T00:41:35.904Z,9.40
2022-09-21T00:44:31.168Z,9.32
2022-09-21T00:47:05.443Z,9.27
2022-09-21T00:49:36.499Z,9.24
2022-09-21T00:52:08.051Z,9.19
2022-09-21T00:54:42.028Z,9.13
2022-09-21T00:57:11.178Z,9.08
2022-09-21T00:59:45.847Z,9.08
2022-09-21T01:02:17.898Z,9.08
2022-09-21T01:04:47.212Z,9.08
2022-09-21T01:07:20.222Z,9.06
2022-09-21T01:09:53.077Z,9.05
2022-09-21T01:12:38.436Z,9.02
2022-09-21T01:15:22.864Z,8.96
2022-09-21T01:18:00.953Z,8.89
2022-09-21T01:21:18.769Z,8.82
2022-09-21T01:24:14.405Z,8.80
2022-09-21T01:27:15.366Z,8.74
2022-09-21T01:29:50.332Z,8.73
2022-09-21T01:32:23.706Z,8.70
2022-09-21T01:34:57.745Z,8.68
2022-09-21T01:37:31.424Z,8.68
2022-09-21T01:40:04.988Z,8.65
2022-09-21T01:42:35.380Z,8.64
2022-09-21T01:45:09.134Z,8.61
2022-09-21T01:47:39.020Z,8.57
2022-09-21T01:50:10.772Z,8.53
2022-09-21T01:52:45.994Z,8.50
2022-09-21T01:55:18.011Z,8.44
2022-09-21T01:57:56.803Z,8.42
2022-09-21T02:00:27.733Z,8.42
2022-09-21T02:03:01.511Z,8.43
2022-09-21T02:05:31.176Z,8.41
2022-09-21T02:08:01.400Z,8.40
2022-09-21T02:10:35.602Z,8.41
2022-09-21T02:13:07.442Z,8.43
2022-09-21T02:15:52.436Z,8.44
2022-09-21T02:18:34.363Z,8.45
2022-09-21T02:21:09.109Z,8.47
2022-09-21T02:23:44.676Z,8.49
2022-09-21T02:26:20.259Z,8.50
2022-09-21T02:28:54.594Z,8.51
2022-09-21T02:31:34.226Z,8.51
2022-09-21T02:34:10.701Z,8.53
2022-09-21T02:36:46.329Z,8.52
2022-09-21T02:39:19.586Z,8.48
2022-09-21T02:42:03.011Z,8.44
2022-09-21T02:44:37.716Z,8.41
2022-09-21T02:47:14.112Z,8.38
2022-09-21T02:49:47.618Z,8.31
2022-09-21T02:52:18.754Z,8.28
2022-09-21T02:54:51.358Z,8.23
2022-09-21T02:57:22.413Z,8.21
2022-09-21T02:59:51.709Z,8.20
2022-09-21T03:02:21.431Z,8.16
2022-09-21T03:04:50.530Z,8.12
2022-09-21T03:07:19.275Z,8.10
2022-09-21T03:09:47.559Z,8.10
2022-09-21T03:12:15.672Z,8.08
2022-09-21T03:14:43.813Z,8.03
2022-09-21T03:17:11.927Z,8.01
2022-09-21T03:19:41.398Z,8.00
2022-09-21T03:22:09.527Z,7.95
2022-09-21T03:24:46.788Z,7.92
2022-09-21T03:27:15.960Z,7.92
2022-09-21T03:29:44.227Z,7.89
2022-09-21T03:32:13.806Z,7.84
2022-09-21T03:34:43.778Z,7.80
2022-09-21T03:37:12.356Z,7.78
2022-09-21T03:39:40.521Z,7.76
2022-09-21T03:42:09.949Z,7.73
2022-09-21T03:44:38.493Z,7.70
2022-09-21T03:47:07.538Z,7.70
2022-09-21T03:49:36.009Z,7.71
2022-09-21T03:52:05.942Z,7.77
2022-09-21T03:54:34.346Z,7.80
2022-09-21T03:57:02.625Z,7.80
2022-09-21T03:59:30.789Z,7.81
2022-09-21T04:01:58.976Z,7.81
2022-09-21T04:04:27.118Z,7.81
2022-09-21T04:06:55.285Z,7.79
2022-09-21T04:09:24.782Z,7.80
2022-09-21T04:11:53.916Z,7.79
2022-09-21T04:14:26.023Z,7.75
2022-09-21T04:16:54.236Z,7.81
2022-09-21T04:19:22.528Z,7.82
2022-09-21T04:21:51.402Z,7.82
2022-09-21T04:24:19.938Z,7.83
2022-09-21T04:26:49.494Z,7.81
2022-09-21T04:29:18.065Z,7.76
2022-09-21T04:31:46.190Z,7.70
2022-09-21T04:34:15.017Z,7.65
2022-09-21T04:36:43.595Z,7.61
2022-09-21T04:39:11.743Z,7.59
2022-09-21T04:41:39.828Z,7.59
2022-09-21T04:44:09.887Z,7.57
2022-09-21T04:46:41.080Z,7.53
2022-09-21T04:49:10.711Z,7.52
2022-09-21T04:51:38.998Z,7.50
2022-09-21T04:54:07.693Z,7.48
2022-09-21T04:56:36.249Z,7.48
2022-09-21T04:59:04.687Z,7.45
2022-09-21T05:01:34.579Z,7.42
2022-09-21T05:04:03.430Z,7.40
2022-09-21T05:06:32.263Z,7.39
2022-09-21T05:09:18.439Z,7.37
2022-09-21T05:11:47.284Z,7.30
2022-09-21T05:14:15.813Z,7.29
2022-09-21T05:16:47.582Z,7.30
2022-09-21T05:19:15.768Z,7.30
2022-09-21T05:21:44.092Z,7.30
2022-09-21T05:24:12.227Z,7.28
2022-09-21T05:26:40.365Z,7.31
2022-09-21T05:29:09.963Z,7.32
2022-09-21T05:31:46.753Z,7.33
2022-09-21T05:34:36.430Z,7.35
2022-09-21T05:37:11.709Z,7.37
2022-09-21T05:39:40.741Z,7.40
2022-09-21T05:42:12.718Z,7.40
2022-09-21T05:44:41.747Z,7.42
2022-09-21T05:47:24.713Z,7.41
2022-09-21T05:50:05.848Z,7.44
2022-09-21T05:52:42.385Z,7.49
2022-09-21T05:55:27.392Z,7.54
2022-09-21T05:58:10.580Z,7.60
2022-09-21T06:00:48.353Z,7.66
2022-09-21T06:03:37.055Z,7.72
2022-09-21T06:06:05.531Z,7.77
2022-09-21T06:08:33.654Z,7.83
2022-09-21T06:11:02.065Z,7.91
2022-09-21T06:13:30.243Z,7.98
2022-09-21T06:15:58.512Z,8.08
2022-09-21T06:18:26.626Z,8.20
2022-09-21T06:20:56.334Z,8.31
2022-09-21T06:23:24.718Z,8.41
2022-09-21T06:25:57.520Z,8.52
2022-09-21T06:28:27.900Z,8.63
2022-09-21T06:30:57.617Z,8.75
2022-09-21T06:33:26.023Z,8.85
2022-09-21T06:35:57.613Z,8.96
2022-09-21T06:38:27.747Z,9.07
2022-09-21T06:40:56.722Z,9.14
2022-09-21T06:43:24.897Z,9.27
2022-09-21T06:45:57.473Z,9.37
2022-09-21T06:48:26.884Z,9.45
2022-09-21T06:51:00.405Z,9.55
2022-09-21T06:53:29.657Z,9.65
2022-09-21T06:56:02.932Z,9.71
2022-09-21T06:58:34.178Z,9.77
2022-09-21T07:01:08.215Z,9.85
2022-09-21T07:03:37.325Z,9.92
2022-09-21T07:06:08.640Z,10.17
2022-09-21T07:11:25.221Z,10.38
2022-09-21T07:13:53.421Z,10.53
2022-09-21T07:16:22.403Z,10.69
2022-09-21T07:18:50.510Z,10.89
2022-09-21T07:21:20.025Z,11.07
2022-09-21T07:23:48.952Z,11.23
2022-09-21T07:26:17.390Z,11.40
2022-09-21T07:28:45.806Z,11.55
2022-09-21T07:31:16.010Z,11.72
2022-09-21T07:33:46.484Z,11.87
2022-09-21T07:36:14.730Z,12.00
2022-09-21T07:38:45.634Z,12.16
2022-09-21T07:41:15.579Z,12.28
2022-09-21T07:43:44.321Z,12.42
2022-09-21T07:46:15.620Z,12.55
2022-09-21T07:48:43.734Z,12.69
2022-09-21T07:51:14.503Z,12.83
2022-09-21T07:53:45.416Z,12.97
2022-09-21T07:56:16.197Z,13.11
2022-09-21T07:59:02.753Z,13.24
2022-09-21T08:01:31.901Z,13.34
2022-09-21T08:04:01.097Z,13.46
2022-09-21T08:06:33.071Z,13.60
2022-09-21T08:09:04.494Z,13.74
2022-09-21T08:11:34.286Z,13.85
2022-09-21T08:14:04.129Z,13.97
2022-09-21T08:16:34.053Z,14.09
2022-09-21T08:19:03.124Z,14.22
2022-09-21T08:21:31.940Z,14.30
2022-09-21T08:24:00.139Z,14.42
2022-09-21T08:26:29.690Z,14.55
2022-09-21T08:28:58.801Z,14.67
2022-09-21T08:31:27.566Z,14.78
2022-09-21T08:33:57.561Z,14.88
2022-09-21T08:36:26.434Z,14.97
2022-09-21T08:38:57.602Z,15.07
2022-09-21T08:41:37.207Z,15.17
2022-09-21T08:44:12.885Z,15.27
2022-09-21T08:46:43.678Z,15.36
2022-09-21T08:49:16.403Z,15.42
2022-09-21T08:51:50.845Z,15.49
2022-09-21T08:54:28.050Z,15.59
2022-09-21T08:57:06.135Z,15.68
2022-09-21T08:59:36.165Z,15.77
2022-09-21T09:02:28.680Z,15.87
2022-09-21T09:05:08.052Z,15.95
2022-09-21T09:08:11.562Z,16.05
2022-09-21T09:10:44.347Z,16.14
2022-09-21T09:13:46.519Z,16.19
2022-09-21T09:16:20.477Z,16.30
2022-09-21T09:18:54.160Z,16.35
2022-09-21T09:21:31.809Z,16.32
2022-09-21T09:24:05.828Z,16.34
2022-09-21T09:26:42.745Z,16.45
2022-09-21T09:29:23.058Z,16.64
2022-09-21T09:31:54.631Z,16.59
2022-09-21T09:34:29.854Z,16.44
2022-09-21T09:37:02.544Z,16.32
2022-09-21T09:39:31.943Z,16.31
2022-09-21T09:42:29.089Z,16.42
2022-09-21T09:45:28.753Z,16.45
2022-09-21T09:48:28.115Z,16.42
2022-09-21T09:50:57.343Z,16.40
2022-09-21T09:53:28.292Z,16.53
2022-09-21T09:55:58.384Z,16.83
2022-09-21T09:58:40.719Z,17.15
2022-09-21T10:01:10.223Z,17.42
2022-09-21T10:03:38.445Z,17.71
2022-09-21T10:06:07.024Z,17.90
2022-09-21T10:08:44.623Z,18.03
2022-09-21T10:11:15.222Z,18.20
2022-09-21T10:13:45.211Z,18.38
2022-09-21T10:16:20.520Z,18.46
2022-09-21T10:18:51.917Z,18.54
2022-09-21T10:21:24.193Z,18.66
2022-09-21T10:23:55.392Z,18.72
2022-09-21T10:26:24.229Z,18.78
2022-09-21T10:29:01.065Z,18.71
2022-09-21T10:31:31.806Z,18.51
2022-09-21T10:34:15.928Z,18.41
2022-09-21T10:36:52.421Z,18.43
2022-09-21T10:39:24.486Z,18.28
2022-09-21T10:41:58.356Z,18.15
2022-09-21T10:44:34.911Z,18.20
2022-09-21T10:47:18.834Z,18.16
2022-09-21T10:49:51.554Z,18.05
2022-09-21T10:52:23.845Z,17.99
2022-09-21T10:54:56.223Z,18.16
2022-09-21T10:57:27.833Z,18.37
2022-09-21T10:59:57.262Z,18.51
2022-09-21T11:02:39.373Z,18.70
2022-09-21T11:05:16.552Z,18.92
2022-09-21T11:07:52.299Z,19.16
2022-09-21T11:10:29.819Z,19.33
2022-09-21T11:13:19.339Z,19.47
2022-09-21T11:15:56.558Z,19.71
2022-09-21T11:18:39.655Z,19.89
2022-09-21T11:21:16.196Z,19.93
2022-09-21T11:23:54.769Z,20.01
2022-09-21T11:26:29.001Z,20.17
2022-09-21T11:29:06.766Z,20.33
2022-09-21T11:31:45.670Z,20.54
2022-09-21T11:34:47.586Z,20.82
2022-09-21T11:37:29.778Z,21.00
2022-09-21T11:40:23.861Z,21.31
2022-09-21T11:43:08.405Z,21.65
2022-09-21T11:45:58.916Z,21.65
2022-09-21T11:48:43.533Z,21.46
2022-09-21T11:51:38.314Z,21.72
2022-09-21T11:54:42.896Z,21.64
2022-09-21T11:57:19.132Z,21.85
2022-09-21T12:00:10.116Z,22.30
2022-09-21T12:03:23.209Z,22.72
2022-09-21T12:06:11.079Z,22.79
2022-09-21T12:08:59.997Z,22.43
2022-09-21T12:11:38.042Z,22.02
2022-09-21T12:14:22.420Z,21.58
2022-09-21T12:16:59.116Z,21.16
2022-09-21T12:19:37.509Z,20.90
2022-09-21T12:22:12.801Z,20.87
2022-09-21T12:24:47.717Z,21.21
2022-09-21T12:27:27.248Z,21.82
2022-09-21T12:30:00.806Z,22.73
2022-09-21T12:32:40.996Z,23.69
2022-09-21T12:35:17.169Z,24.46
2022-09-21T12:37:51.165Z,25.17
2022-09-21T12:40:27.878Z,25.86
2022-09-21T12:43:08.446Z,26.54
2022-09-21T12:45:47.522Z,26.97
2022-09-21T12:48:28.123Z,27.49
2022-09-21T12:51:05.825Z,27.69
2022-09-21T12:53:38.825Z,28.05
2022-09-21T12:56:14.577Z,28.38
2022-09-21T12:59:06.676Z,28.50
2022-09-21T13:01:43.271Z,28.78
2022-09-21T13:04:34.424Z,29.35
2022-09-21T13:07:32.861Z,29.76
2022-09-21T13:10:02.849Z,30.12
2022-09-21T13:12:40.042Z,30.28
2022-09-21T13:15:21.899Z,30.54
2022-09-21T13:18:01.055Z,30.86
2022-09-21T13:20:35.557Z,30.79
2022-09-21T13:23:04.291Z,30.75
2022-09-21T13:25:37.445Z,30.94
2022-09-21T13:28:24.163Z,31.24
2022-09-21T13:31:57.947Z,31.44
2022-09-21T13:34:30.412Z,31.32
2022-09-21T13:37:31.098Z,31.60
2022-09-21T13:40:38.772Z,32.09
2022-09-21T13:43:50.608Z,32.32
2022-09-21T13:47:05.992Z,32.32
2022-09-21T13:49:50.772Z,32.28
2022-09-21T13:52:35.429Z,32.34
2022-09-21T13:55:06.971Z,32.24
2022-09-21T13:57:40.473Z,32.29
2022-09-21T14:00:33.626Z,32.43
2022-09-21T14:03:04.791Z,31.41
2022-09-21T14:05:39.314Z,29.57
2022-09-21T14:08:19.950Z,27.88
2022-09-21T14:10:55.235Z,26.63
2022-09-21T14:13:37.057Z,25.58
2022-09-21T14:16:55.957Z,24.54
2022-09-21T14:20:00.970Z,23.69
2022-09-21T14:22:43.769Z,24.23
2022-09-21T14:25:39.777Z,25.49
2022-09-21T14:28:14.338Z,26.00
2022-09-21T14:30:52.827Z,25.37
2022-09-21T14:33:31.574Z,24.71
2022-09-21T14:36:03.662Z,25.51
2022-09-21T14:38:40.433Z,27.42
2022-09-21T14:41:12.846Z,29.12
2022-09-21T14:43:52.121Z,30.33
2022-09-21T14:46:47.515Z,31.51
2022-09-21T14:49:41.019Z,32.45
2022-09-21T14:52:31.914Z,33.14
2022-09-21T14:55:15.845Z,31.90
2022-09-21T14:58:17.502Z,29.63
2022-09-21T15:00:50.239Z,28.00
2022-09-21T15:03:48.938Z,26.48
2022-09-21T15:06:45.845Z,25.45
2022-09-21T15:09:55.305Z,24.53
2022-09-21T15:12:32.196Z,23.85
2022-09-21T15:15:24.761Z,23.30
2022-09-21T15:17:59.727Z,23.01
2022-09-21T15:20:32.054Z,22.78
2022-09-21T15:23:04.149Z,22.57
2022-09-21T15:25:35.163Z,22.37
2022-09-21T15:28:06.785Z,22.20
2022-09-21T15:30:45.891Z,21.98
2022-09-21T15:33:14.929Z,21.77
2022-09-21T15:35:48.037Z,21.65
2022-09-21T15:38:30.863Z,22.16
2022-09-21T15:41:03.428Z,24.08
2022-09-21T15:43:34.437Z,26.22
2022-09-21T15:46:04.914Z,28.03
2022-09-21T15:48:36.701Z,29.55
2022-09-21T15:51:12.327Z,30.74
2022-09-21T15:53:47.035Z,31.70
2022-09-21T15:56:22.103Z,32.55
2022-09-21T15:58:51.095Z,33.26
2022-09-21T16:01:24.554Z,33.83
2022-09-21T16:04:06.614Z,34.24
2022-09-21T16:06:41.538Z,33.56
2022-09-21T16:09:49.570Z,31.77
2022-09-21T16:12:41.745Z,30.26
2022-09-21T16:15:19.626Z,28.94
2022-09-21T16:18:02.929Z,27.82
2022-09-21T16:20:47.372Z,26.91
2022-09-21T16:23:18.984Z,26.60
2022-09-21T16:25:57.067Z,27.48
2022-09-21T16:28:36.154Z,27.56
2022-09-21T16:31:31.572Z,27.02
2022-09-21T16:34:27.090Z,26.47
2022-09-21T16:36:58.134Z,25.83
2022-09-21T16:39:27.327Z,25.27
2022-09-21T16:42:04.072Z,24.74
2022-09-21T16:44:40.072Z,24.35
2022-09-21T16:47:15.669Z,24.87
2022-09-21T16:49:44.817Z,25.93
2022-09-21T16:52:12.939Z,26.85
2022-09-21T16:54:41.243Z,27.16
2022-09-21T16:57:14.311Z,26.51
2022-09-21T16:59:42.696Z,25.53
2022-09-21T17:02:14.281Z,24.63
2022-09-21T17:04:43.095Z,23.84
2022-09-21T17:07:13.151Z,23.20
2022-09-21T17:09:44.361Z,22.65
2022-09-21T17:12:18.564Z,22.13
2022-09-21T17:14:47.563Z,21.67
2022-09-21T17:17:20.706Z,21.22
2022-09-21T17:19:51.804Z,20.80
2022-09-21T17:22:21.847Z,20.42
2022-09-21T17:24:52.538Z,20.07
2022-09-21T17:27:26.712Z,19.72
2022-09-21T17:29:56.478Z,19.40
2022-09-21T17:32:26.342Z,19.09
2022-09-21T17:35:00.123Z,18.78
2022-09-21T17:37:29.315Z,18.52
2022-09-21T17:39:57.480Z,18.25
2022-09-21T17:42:36.925Z,17.97
2022-09-21T17:45:18.559Z,17.71
2022-09-21T17:47:48.347Z,17.50
2022-09-21T17:50:24.009Z,17.29
2022-09-21T17:53:10.441Z,17.09
2022-09-21T17:55:40.267Z,16.86
2022-09-21T17:58:35.508Z,16.63
2022-09-21T18:01:08.568Z,16.44
2022-09-21T18:03:41.107Z,16.27
2022-09-21T18:06:11.559Z,16.09
2022-09-21T18:08:41.429Z,15.93
2022-09-21T18:11:34.238Z,15.73
2022-09-21T18:14:17.292Z,15.55
2022-09-21T18:16:56.994Z,15.39
2022-09-21T18:19:41.299Z,15.25
2022-09-21T18:22:20.333Z,15.11
2022-09-21T18:24:49.485Z,14.99
2022-09-21T18:27:20.038Z,14.87
2022-09-21T18:29:50.633Z,14.74
2022-09-21T18:32:43.236Z,14.59
2022-09-21T18:35:37.757Z,14.44
2022-09-21T18:38:24.393Z,14.31
2022-09-21T18:41:09.089Z,14.21
2022-09-21T18:43:53.073Z,14.10
2022-09-21T18:46:33.977Z,14.00
2022-09-21T18:49:12.055Z,13.90
2022-09-21T18:51:47.318Z,13.83
2022-09-21T18:54:20.717Z,13.74
2022-09-21T18:56:49.242Z,13.67
2022-09-21T18:59:18.553Z,13.62
2022-09-21T19:01:50.641Z,13.52
2022-09-21T19:04:20.106Z,13.44
2022-09-21T19:06:56.128Z,13.36
2022-09-21T19:09:41.810Z,13.28
2022-09-21T19:12:22.045Z,13.20
2022-09-21T19:15:08.927Z,13.13
2022-09-21T19:17:57.136Z,13.06
2022-09-21T19:20:52.088Z,12.98
2022-09-21T19:23:32.446Z,12.92
2022-09-21T19:26:12.106Z,12.86
2022-09-21T19:29:13.014Z,12.78
2022-09-21T19:31:41.453Z,12.72
2022-09-21T19:34:16.827Z,12.68
2022-09-21T19:36:47.123Z,12.64
2022-09-21T19:39:16.691Z,12.60
2022-09-21T19:41:58.810Z,12.54
2022-09-21T19:44:58.784Z,12.46
2022-09-21T19:47:31.615Z,12.40
2022-09-21T19:50:17.037Z,12.34
2022-09-21T19:52:46.145Z,12.29
2022-09-21T19:55:35.734Z,12.24
2022-09-21T19:58:23.079Z,12.20
2022-09-21T20:00:54.466Z,12.15
2022-09-21T20:03:31.763Z,12.09
2022-09-21T20:06:08.961Z,12.06
2022-09-21T20:08:44.312Z,12.01
2022-09-21T20:11:17.152Z,11.98
2022-09-21T20:14:06.297Z,11.92
2022-09-21T20:16:45.078Z,11.87
2022-09-21T20:19:46.421Z,11.82
2022-09-21T20:22:21.401Z,11.77
2022-09-21T20:24:59.410Z,11.73
2022-09-21T20:27:34.826Z,11.70
2022-09-21T20:30:12.222Z,11.70
2022-09-21T20:32:44.604Z,11.65
2022-09-21T20:35:19.033Z,11.60
2022-09-21T20:37:49.061Z,11.54
2022-09-21T20:40:17.425Z,11.51
2022-09-21T20:42:45.717Z,11.65
2022-09-21T20:45:15.354Z,11.58
2022-09-21T20:47:43.957Z,11.53
2022-09-21T20:50:13.603Z,11.48
2022-09-21T20:52:45.129Z,11.44
2022-09-21T20:55:17.289Z,11.37
2022-09-21T20:57:46.070Z,11.35
2022-09-21T21:00:18.189Z,11.30
2022-09-21T21:02:46.583Z,11.23
2022-09-21T21:05:14.753Z,11.21
2022-09-21T21:07:43.939Z,11.18
2022-09-21T21:10:15.592Z,11.14
2022-09-21T21:12:45.834Z,11.11
2022-09-21T21:15:14.459Z,11.07
2022-09-21T21:17:43.181Z,11.05
2022-09-21T21:20:12.025Z,11.00
2022-09-21T21:22:40.137Z,10.97
2022-09-21T21:25:09.448Z,10.94
2022-09-21T21:27:39.354Z,10.92
2022-09-21T21:30:09.902Z,10.87
2022-09-21T21:32:38.174Z,10.86
2022-09-21T21:35:08.078Z,10.84
2022-09-21T21:37:36.312Z,10.80
2022-09-21T21:40:05.272Z,10.80
2022-09-21T21:42:34.288Z,10.80
2022-09-21T21:45:04.130Z,10.74
2022-09-21T21:47:39.630Z,10.71
2022-09-21T21:50:09.811Z,10.68
2022-09-21T21:52:38.248Z,10.65
2022-09-21T21:55:07.810Z,10.62
2022-09-21T21:57:35.918Z,10.61
2022-09-21T22:00:09.648Z,10.58
2022-09-21T22:02:37.815Z,10.59
2022-09-21T22:05:06.920Z,10.56
2022-09-21T22:07:35.372Z,10.55
2022-09-21T22:10:03.471Z,10.53
2022-09-21T22:12:31.700Z,10.49
2022-09-21T22:14:59.815Z,10.48
2022-09-21T22:17:29.424Z,10.45
2022-09-21T22:19:57.560Z,10.44
2022-09-21T22:22:25.847Z,10.43
2022-09-21T22:24:53.938Z,10.42
2022-09-21T22:27:22.336Z,10.39
2022-09-21T22:29:50.400Z,10.39
2022-09-21T22:32:18.834Z,10.37
2022-09-21T22:34:50.035Z,10.36
2022-09-21T22:37:18.251Z,10.33
2022-09-21T22:39:46.311Z,10.28
2022-09-21T22:42:14.504Z,10.22
2022-09-21T22:44:42.654Z,10.17
2022-09-21T22:47:10.742Z,10.12
2022-09-21T22:49:38.863Z,10.11
2022-09-21T22:52:08.418Z,10.08
2022-09-21T22:54:36.516Z,10.05
2022-09-21T22:57:05.417Z,10.05
2022-09-21T22:59:33.559Z,10.04
2022-09-21T23:02:01.702Z,10.00
2022-09-21T23:04:29.859Z,9.98
2022-09-21T23:06:58.051Z,9.90
2022-09-21T23:09:27.588Z,9.92
2022-09-21T23:11:55.725Z,9.88
2022-09-21T23:14:24.519Z,9.84
2022-09-21T23:16:53.131Z,9.80
2022-09-21T23:19:21.257Z,9.77
2022-09-21T23:21:52.856Z,9.73
2022-09-21T23:24:21.851Z,9.72
2022-09-21T23:26:51.806Z,9.67
2022-09-21T23:29:20.481Z,9.82
2022-09-21T23:31:49.044Z,9.78
2022-09-21T23:34:17.649Z,9.73
2022-09-21T23:36:46.502Z,9.68
2022-09-21T23:39:16.556Z,9.64
2022-09-21T23:41:45.197Z,9.58
2022-09-21T23:44:14.827Z,9.56
2022-09-21T23:46:43.624Z,9.53
2022-09-21T23:49:11.815Z,9.51
2022-09-21T23:51:40.728Z,9.50
2022-09-21T23:54:09.314Z,9.49
2022-09-21T23:56:37.892Z,9.50
2022-09-21T23:59:07.033Z,9.48
